createdAt,value
2017-07-18T00:00:54.487Z,71.70
2017-07-18T00:03:21.073Z,71.10
2017-07-18T00:05:47.287Z,71.70
2017-07-18T00:08:13.464Z,72.20
2017-07-18T00:10:40.409Z,72.70
2017-07-18T00:13:07.333Z,72.00
2017-07-18T00:15:33.526Z,71.60
2017-07-18T00:17:59.713Z,71.30
2017-07-18T00:20:26.767Z,72.80
2017-07-18T00:22:52.966Z,71.90
2017-07-18T00:25:19.235Z,71.30
2017-07-18T00:27:45.632Z,71.80
2017-07-18T00:30:13.061Z,71.80
2017-07-18T00:32:39.258Z,71.50
2017-07-18T00:35:05.456Z,71.70
2017-07-18T00:37:31.646Z,70.90
2017-07-18T00:40:00.357Z,71.60
2017-07-18T00:42:26.526Z,70.90
2017-07-18T00:44:52.694Z,70.90
2017-07-18T00:47:18.898Z,71.80
2017-07-18T00:49:45.147Z,72.10
2017-07-18T00:52:11.373Z,71.30
2017-07-18T00:54:37.814Z,71.50
2017-07-18T00:57:04.046Z,70.80
2017-07-18T00:59:30.218Z,71.10
2017-07-18T01:01:57.441Z,70.70
2017-07-18T01:04:23.979Z,71.20
2017-07-18T01:06:50.196Z,71.40
2017-07-18T01:09:16.395Z,72.00
2017-07-18T01:11:42.615Z,72.50
2017-07-18T01:14:08.779Z,72.00
2017-07-18T01:16:34.975Z,71.70
2017-07-18T01:19:01.144Z,71.80
2017-07-18T01:21:27.351Z,71.50
2017-07-18T01:23:53.574Z,71.80
2017-07-18T01:26:19.951Z,71.20
2017-07-18T01:28:47.620Z,71.40
2017-07-18T01:31:14.615Z,72.30
2017-07-18T01:33:40.817Z,70.50
2017-07-18T01:36:07.759Z,71.30
2017-07-18T01:38:34.780Z,71.80
2017-07-18T01:41:01.014Z,71.60
2017-07-18T01:43:27.282Z,71.10
2017-07-18T01:45:53.541Z,71.50
2017-07-18T01:48:19.768Z,71.00
2017-07-18T01:50:46.708Z,71.30
2017-07-18T01:53:12.964Z,71.40
2017-07-18T01:55:39.234Z,71.00
2017-07-18T01:58:06.923Z,71.70
2017-07-18T02:00:35.250Z,71.40
2017-07-18T02:03:01.644Z,71.80
2017-07-18T02:05:27.895Z,71.50
2017-07-18T02:07:54.462Z,71.20
2017-07-18T02:10:20.687Z,70.80
2017-07-18T02:12:47.246Z,71.40
2017-07-18T02:15:13.391Z,71.10
2017-07-18T02:17:39.578Z,71.00
2017-07-18T02:20:21.628Z,71.60
2017-07-18T02:22:47.863Z,72.20
2017-07-18T02:25:14.038Z,71.70
2017-07-18T02:27:41.039Z,72.60
2017-07-18T02:30:07.254Z,71.60
2017-07-18T02:32:35.818Z,71.30
2017-07-18T02:35:02.054Z,71.80
2017-07-18T02:37:28.217Z,71.70
2017-07-18T02:39:54.424Z,71.60
2017-07-18T02:42:24.198Z,71.60
2017-07-18T02:44:50.579Z,71.30
2017-07-18T02:47:16.786Z,72.00
2017-07-18T02:49:43.056Z,72.20
2017-07-18T02:52:09.263Z,71.60
2017-07-18T02:54:35.546Z,72.10
2017-07-18T02:57:02.637Z,72.40
2017-07-18T02:59:28.786Z,72.90
2017-07-18T03:01:55.100Z,72.60
2017-07-18T03:04:21.272Z,71.20
2017-07-18T03:06:47.476Z,71.80
2017-07-18T03:09:13.702Z,71.40
2017-07-18T03:11:39.877Z,72.20
2017-07-18T03:14:06.829Z,72.60
2017-07-18T03:16:33.044Z,72.50
2017-07-18T03:18:59.977Z,72.50
2017-07-18T03:21:26.159Z,72.50
2017-07-18T03:23:52.366Z,72.60
2017-07-18T03:26:18.698Z,72.10
2017-07-18T03:28:44.879Z,71.70
2017-07-18T03:31:11.094Z,71.60
2017-07-18T03:33:37.660Z,72.30
2017-07-18T03:36:03.873Z,73.00
2017-07-18T03:38:30.079Z,72.00
2017-07-18T03:40:56.280Z,71.90
2017-07-18T03:43:22.485Z,72.40
2017-07-18T03:45:49.459Z,72.70
2017-07-18T03:48:16.238Z,72.40
2017-07-18T03:50:42.433Z,72.30
2017-07-18T03:53:08.618Z,72.60
2017-07-18T03:55:34.795Z,72.70
2017-07-18T03:58:01.027Z,72.90
2017-07-18T04:00:27.224Z,72.50
2017-07-18T04:02:53.442Z,73.10
2017-07-18T04:05:20.399Z,73.20
2017-07-18T04:07:47.375Z,72.30
2017-07-18T04:10:13.597Z,72.00
2017-07-18T04:12:39.763Z,71.80
2017-07-18T04:15:06.115Z,73.10
2017-07-18T04:17:32.290Z,71.90
2017-07-18T04:19:58.459Z,72.50
2017-07-18T04:22:24.668Z,72.50
2017-07-18T04:24:50.840Z,73.70
2017-07-18T04:27:17.790Z,73.30
2017-07-18T04:29:44.735Z,74.30
2017-07-18T04:32:11.680Z,73.00
2017-07-18T04:34:37.883Z,73.00
2017-07-18T04:37:04.108Z,73.50
2017-07-18T04:39:30.307Z,73.60
2017-07-18T04:41:56.530Z,74.00
2017-07-18T04:44:22.714Z,75.10
2017-07-18T04:46:49.018Z,73.50
2017-07-18T04:49:15.269Z,74.40
2017-07-18T04:51:42.229Z,73.30
2017-07-18T04:54:09.166Z,73.50
2017-07-18T04:56:35.406Z,73.50
2017-07-18T04:59:01.636Z,73.90
2017-07-18T05:01:28.587Z,74.00
2017-07-18T05:03:55.732Z,73.40
2017-07-18T05:06:23.112Z,73.80
2017-07-18T05:08:50.088Z,73.10
2017-07-18T05:11:16.737Z,72.90
2017-07-18T05:13:42.959Z,72.50
2017-07-18T05:16:09.159Z,72.50
2017-07-18T05:18:35.335Z,73.70
2017-07-18T05:21:01.556Z,74.50
2017-07-18T05:23:27.755Z,70.90
2017-07-18T05:25:53.929Z,72.30
2017-07-18T05:28:20.820Z,70.90
2017-07-18T05:30:47.036Z,69.50
2017-07-18T05:33:13.258Z,70.00
2017-07-18T05:35:39.462Z,67.90
2017-07-18T05:38:06.522Z,68.40
2017-07-18T05:40:33.382Z,67.70
2017-07-18T05:42:59.595Z,67.70
2017-07-18T05:45:26.538Z,68.90
2017-07-18T05:47:52.877Z,68.10
2017-07-18T05:50:19.097Z,67.80
2017-07-18T05:52:46.071Z,68.50
2017-07-18T05:55:12.406Z,67.40
2017-07-18T05:57:38.616Z,67.80
2017-07-18T06:00:04.828Z,65.80
2017-07-18T06:02:32.735Z,65.50
2017-07-18T06:04:59.088Z,65.50
2017-07-18T06:07:26.349Z,63.50
2017-07-18T06:09:53.029Z,63.60
2017-07-18T06:12:20.575Z,62.40
2017-07-18T06:14:46.837Z,62.10
2017-07-18T06:17:16.943Z,61.50
2017-07-18T06:19:43.539Z,61.60
2017-07-18T06:22:09.715Z,61.30
2017-07-18T06:24:35.894Z,60.60
2017-07-18T06:27:02.088Z,61.70
2017-07-18T06:29:29.889Z,59.40
2017-07-18T06:31:56.102Z,59.10
2017-07-18T06:34:22.778Z,59.20
2017-07-18T06:36:49.718Z,60.00
2017-07-18T06:39:16.011Z,58.90
2017-07-18T06:41:42.467Z,58.70
2017-07-18T06:44:08.641Z,58.30
2017-07-18T06:46:34.847Z,57.80
2017-07-18T06:49:01.055Z,58.30
2017-07-18T06:51:27.239Z,57.60
2017-07-18T06:53:53.471Z,57.30
2017-07-18T06:56:20.966Z,56.40
2017-07-18T06:58:47.174Z,56.20
2017-07-18T07:01:13.345Z,56.90
2017-07-18T07:03:40.316Z,56.90
2017-07-18T07:06:06.659Z,57.00
2017-07-18T07:08:34.449Z,55.50
2017-07-18T07:11:00.642Z,55.10
2017-07-18T07:13:26.918Z,57.70
2017-07-18T07:15:53.209Z,56.20
2017-07-18T07:18:19.387Z,56.00
2017-07-18T07:20:45.617Z,54.60
2017-07-18T07:23:11.827Z,55.00
2017-07-18T07:25:38.043Z,54.50
2017-07-18T07:28:05.115Z,53.10
2017-07-18T07:30:31.287Z,51.90
2017-07-18T07:32:57.506Z,51.90
2017-07-18T07:35:24.454Z,53.60
2017-07-18T07:37:51.428Z,53.20
2017-07-18T07:40:18.371Z,52.10
2017-07-18T07:42:44.742Z,52.10
2017-07-18T07:45:10.853Z,52.60
2017-07-18T07:47:37.154Z,51.80
2017-07-18T07:50:03.491Z,51.00
2017-07-18T07:52:29.692Z,50.10
2017-07-18T07:54:56.364Z,50.70
2017-07-18T07:57:22.566Z,51.20
2017-07-18T07:59:49.527Z,49.30
2017-07-18T08:02:15.774Z,48.80
2017-07-18T08:04:42.003Z,48.90
2017-07-18T08:07:08.193Z,47.60
2017-07-18T08:09:34.434Z,49.30
2017-07-18T08:12:01.003Z,48.50
2017-07-18T08:14:27.330Z,49.00
2017-07-18T08:16:53.484Z,46.90
2017-07-18T08:19:19.674Z,47.50
2017-07-18T08:21:45.852Z,48.50
2017-07-18T08:24:12.020Z,47.10
2017-07-18T08:26:38.239Z,48.60
2017-07-18T08:29:04.394Z,49.00
2017-07-18T08:31:30.595Z,49.90
2017-07-18T08:33:57.523Z,52.40
2017-07-18T08:36:23.705Z,50.20
2017-07-18T08:38:50.011Z,50.00
2017-07-18T08:41:16.150Z,50.90
2017-07-18T08:43:42.305Z,50.60
2017-07-18T08:46:08.515Z,51.10
2017-07-18T08:48:34.661Z,51.40
2017-07-18T08:51:00.853Z,50.80
2017-07-18T08:53:27.045Z,49.70
2017-07-18T08:55:53.269Z,50.50
2017-07-18T08:58:19.417Z,49.60
2017-07-18T09:00:46.362Z,50.90
2017-07-18T09:03:13.328Z,50.00
2017-07-18T09:05:39.578Z,50.30
2017-07-18T09:08:05.765Z,47.00
2017-07-18T09:10:32.704Z,47.50
2017-07-18T09:12:58.914Z,48.00
2017-07-18T09:15:25.088Z,49.50
2017-07-18T09:17:51.310Z,47.60
2017-07-18T09:20:17.531Z,47.70
2017-07-18T09:22:43.748Z,48.40
2017-07-18T09:25:10.003Z,49.10
2017-07-18T09:27:36.958Z,48.30
2017-07-18T09:30:03.127Z,48.30
2017-07-18T09:32:29.303Z,49.40
2017-07-18T09:34:55.466Z,48.60
2017-07-18T09:37:21.651Z,49.30
2017-07-18T09:39:48.620Z,47.30
2017-07-18T09:42:14.774Z,46.80
2017-07-18T09:44:40.975Z,47.80
2017-07-18T09:47:07.130Z,47.30
2017-07-18T09:49:33.345Z,47.30
2017-07-18T09:51:59.569Z,48.20
2017-07-18T09:54:25.770Z,47.60
2017-07-18T09:56:51.938Z,47.40
2017-07-18T09:59:18.191Z,47.00
2017-07-18T10:01:44.363Z,46.40
2017-07-18T10:04:10.537Z,46.20
2017-07-18T10:06:36.763Z,45.50
2017-07-18T10:09:02.970Z,44.90
2017-07-18T10:11:29.177Z,46.60
2017-07-18T10:13:55.383Z,46.70
2017-07-18T10:16:21.582Z,45.60
2017-07-18T10:18:47.774Z,45.70
2017-07-18T10:21:13.987Z,45.70
2017-07-18T10:23:40.182Z,45.70
2017-07-18T10:26:06.387Z,45.90
2017-07-18T10:28:32.609Z,44.30
2017-07-18T10:30:58.795Z,45.10
2017-07-18T10:33:25.744Z,44.80
2017-07-18T10:35:51.986Z,44.70
2017-07-18T10:38:18.200Z,45.70
2017-07-18T10:40:44.395Z,43.70
2017-07-18T10:43:10.575Z,43.40
2017-07-18T10:45:36.768Z,42.90
2017-07-18T10:48:03.739Z,42.20
2017-07-18T10:50:29.944Z,42.00
2017-07-18T10:52:56.878Z,42.90
2017-07-18T10:55:23.062Z,42.90
2017-07-18T10:57:49.299Z,42.60
2017-07-18T11:00:15.519Z,43.70
2017-07-18T11:02:41.748Z,43.50
2017-07-18T11:05:07.930Z,41.80
2017-07-18T11:07:34.863Z,42.30
2017-07-18T11:10:01.047Z,42.70
2017-07-18T11:12:27.220Z,42.50
2017-07-18T11:14:53.420Z,42.20
2017-07-18T11:17:19.594Z,44.00
2017-07-18T11:19:46.532Z,42.10
2017-07-18T11:22:14.343Z,43.00
2017-07-18T11:24:40.966Z,40.50
2017-07-18T11:27:08.225Z,41.20
2017-07-18T11:29:34.494Z,40.20
2017-07-18T11:32:01.513Z,39.50
2017-07-18T11:34:27.729Z,40.60
2017-07-18T11:36:54.033Z,40.30
2017-07-18T11:39:21.087Z,39.50
2017-07-18T11:41:47.562Z,42.10
2017-07-18T11:44:13.774Z,41.30
2017-07-18T11:46:39.988Z,43.00
2017-07-18T11:49:06.209Z,44.20
2017-07-18T11:51:33.164Z,42.20
2017-07-18T11:53:59.798Z,42.70
2017-07-18T11:56:26.687Z,41.80
2017-07-18T11:58:52.991Z,42.90
2017-07-18T12:01:19.146Z,43.30
2017-07-18T12:03:45.691Z,43.20
2017-07-18T12:06:12.070Z,44.40
2017-07-18T12:08:38.313Z,43.20
2017-07-18T12:11:04.515Z,42.80
2017-07-18T12:13:32.171Z,43.10
2017-07-18T12:15:58.354Z,42.00
2017-07-18T12:18:36.906Z,42.30
2017-07-18T12:21:03.139Z,43.70
2017-07-18T12:23:29.320Z,43.90
2017-07-18T12:25:55.538Z,43.40
2017-07-18T12:28:21.767Z,42.70
2017-07-18T12:30:48.423Z,44.70
2017-07-18T12:33:14.575Z,44.00
2017-07-18T12:35:40.782Z,43.30
2017-07-18T12:38:06.999Z,44.40
2017-07-18T12:40:33.195Z,42.70
2017-07-18T12:43:00.116Z,42.90
2017-07-18T12:45:26.278Z,41.80
2017-07-18T12:47:52.477Z,42.30
2017-07-18T12:50:19.428Z,41.40
2017-07-18T12:52:46.326Z,43.70
2017-07-18T12:55:12.551Z,43.30
2017-07-18T12:57:38.753Z,44.10
2017-07-18T13:00:04.959Z,43.40
2017-07-18T13:02:31.158Z,44.10
2017-07-18T13:04:57.360Z,44.20
2017-07-18T13:07:23.609Z,44.10
2017-07-18T13:09:49.875Z,43.30
2017-07-18T13:12:16.047Z,43.90
2017-07-18T13:14:42.261Z,44.80
2017-07-18T13:17:08.454Z,45.00
2017-07-18T13:19:35.387Z,43.60
2017-07-18T13:22:02.322Z,43.70
2017-07-18T13:24:28.512Z,42.90
2017-07-18T13:26:54.713Z,43.30
2017-07-18T13:29:21.836Z,45.70
2017-07-18T13:31:48.051Z,45.40
2017-07-18T13:34:14.370Z,45.10
2017-07-18T13:36:40.568Z,45.10
2017-07-18T13:39:06.792Z,44.70
2017-07-18T13:41:33.726Z,45.30
2017-07-18T13:44:00.728Z,46.00
2017-07-18T13:46:26.969Z,45.60
2017-07-18T13:48:53.811Z,46.80
2017-07-18T13:51:20.036Z,48.00
2017-07-18T13:53:46.254Z,46.90
2017-07-18T13:56:12.566Z,47.60
2017-07-18T13:58:38.825Z,47.00
2017-07-18T14:01:05.024Z,47.50
2017-07-18T14:03:31.280Z,45.80
2017-07-18T14:05:57.578Z,46.30
2017-07-18T14:08:24.126Z,46.60
2017-07-18T14:10:50.376Z,48.10
2017-07-18T14:13:16.686Z,48.10
2017-07-18T14:15:42.917Z,47.80
2017-07-18T14:18:09.138Z,47.80
2017-07-18T14:20:35.738Z,47.10
2017-07-18T14:23:01.909Z,48.10
2017-07-18T14:25:28.458Z,47.30
2017-07-18T14:27:54.718Z,47.80
2017-07-18T14:30:20.967Z,47.80
2017-07-18T14:32:47.879Z,46.10
2017-07-18T14:35:20.259Z,48.00
2017-07-18T14:37:46.483Z,48.60
2017-07-18T14:40:12.690Z,47.00
2017-07-18T14:42:41.692Z,46.90
2017-07-18T14:45:08.880Z,47.10
2017-07-18T14:47:35.888Z,46.20
2017-07-18T14:50:02.125Z,47.60
2017-07-18T14:52:28.282Z,48.20
2017-07-18T14:54:54.518Z,46.10
2017-07-18T14:57:21.517Z,47.90
2017-07-18T14:59:47.746Z,46.30
2017-07-18T15:02:13.976Z,45.90
2017-07-18T15:04:40.151Z,47.10
2017-07-18T15:07:07.144Z,47.70
2017-07-18T15:09:33.322Z,46.50
2017-07-18T15:11:59.534Z,46.60
2017-07-18T15:14:25.880Z,45.80
2017-07-18T15:16:52.461Z,46.80
2017-07-18T15:19:18.660Z,45.30
2017-07-18T15:21:45.610Z,46.80
2017-07-18T15:24:12.572Z,46.40
2017-07-18T15:26:38.763Z,46.40
2017-07-18T15:29:05.054Z,46.60
2017-07-18T15:31:31.222Z,46.20
2017-07-18T15:33:58.082Z,44.10
2017-07-18T15:36:25.007Z,44.60
2017-07-18T15:38:51.259Z,44.00
2017-07-18T15:41:18.191Z,45.40
2017-07-18T15:43:44.406Z,44.50
2017-07-18T15:46:10.588Z,45.00
2017-07-18T15:48:44.719Z,46.20
2017-07-18T15:51:11.645Z,46.40
2017-07-18T15:53:37.875Z,46.80
2017-07-18T15:56:04.096Z,47.80
2017-07-18T15:58:30.264Z,46.80
2017-07-18T16:00:58.233Z,48.10
2017-07-18T16:03:24.517Z,48.80
2017-07-18T16:05:50.685Z,48.10
2017-07-18T16:08:16.876Z,48.70
2017-07-18T16:10:43.031Z,48.90
2017-07-18T16:13:09.272Z,48.70
2017-07-18T16:15:35.490Z,48.70
2017-07-18T16:18:01.814Z,49.70
2017-07-18T16:20:28.032Z,47.90
2017-07-18T16:22:54.300Z,48.50
2017-07-18T16:25:20.534Z,49.00
2017-07-18T16:27:46.740Z,49.70
2017-07-18T16:30:12.941Z,49.90
2017-07-18T16:32:39.137Z,48.90
2017-07-18T16:35:05.591Z,47.80
2017-07-18T16:37:31.864Z,49.60
2017-07-18T16:39:58.115Z,49.50
2017-07-18T16:42:24.314Z,50.00
2017-07-18T16:44:50.718Z,50.00
2017-07-18T16:47:17.875Z,50.60
2017-07-18T16:49:44.075Z,50.60
2017-07-18T16:52:11.618Z,49.10
2017-07-18T16:54:37.810Z,50.10
2017-07-18T16:57:04.003Z,50.50
2017-07-18T16:59:32.998Z,51.00
2017-07-18T17:01:59.378Z,49.90
2017-07-18T17:04:28.740Z,48.50
2017-07-18T17:06:54.962Z,48.10
2017-07-18T17:09:21.947Z,49.30
2017-07-18T17:11:48.135Z,49.50
2017-07-18T17:14:15.072Z,50.20
2017-07-18T17:16:42.039Z,50.40
2017-07-18T17:19:08.234Z,50.20
2017-07-18T17:21:34.413Z,50.20
2017-07-18T17:24:00.626Z,51.30
2017-07-18T17:26:26.834Z,51.80
2017-07-18T17:28:53.763Z,51.10
2017-07-18T17:31:21.802Z,51.30
2017-07-18T17:33:48.069Z,51.00
2017-07-18T17:36:15.075Z,52.10
2017-07-18T17:38:41.262Z,49.60
2017-07-18T17:41:08.182Z,52.00
2017-07-18T17:43:34.428Z,51.90
2017-07-18T17:46:01.436Z,51.70
2017-07-18T17:48:27.599Z,49.50
2017-07-18T17:50:53.795Z,50.20
2017-07-18T17:53:19.996Z,50.70
2017-07-18T17:55:46.206Z,49.90
2017-07-18T17:58:12.442Z,50.90
2017-07-18T18:00:38.686Z,50.00
2017-07-18T18:03:04.903Z,51.20
2017-07-18T18:05:31.172Z,51.80
2017-07-18T18:07:57.524Z,51.70
2017-07-18T18:10:23.922Z,51.70
2017-07-18T18:12:50.149Z,51.70
2017-07-18T18:15:16.403Z,53.50
2017-07-18T18:17:43.040Z,53.10
2017-07-18T18:20:10.055Z,53.00
2017-07-18T18:22:36.253Z,52.30
2017-07-18T18:25:03.212Z,54.00
2017-07-18T18:27:29.429Z,53.90
2017-07-18T18:29:56.094Z,53.10
2017-07-18T18:32:22.258Z,52.70
2017-07-18T18:34:48.451Z,53.20
2017-07-18T18:37:14.713Z,53.00
2017-07-18T18:39:40.920Z,53.60
2017-07-18T18:42:07.143Z,53.60
2017-07-18T18:44:33.389Z,53.50
2017-07-18T18:46:59.594Z,53.90
2017-07-18T18:49:25.802Z,54.40
2017-07-18T18:51:52.723Z,55.00
2017-07-18T18:54:19.707Z,55.40
2017-07-18T18:56:45.950Z,55.40
2017-07-18T18:59:12.131Z,55.60
2017-07-18T19:01:38.351Z,54.80
2017-07-18T19:04:04.537Z,55.30
2017-07-18T19:06:45.832Z,55.40
2017-07-18T19:09:12.027Z,55.40
2017-07-18T19:11:38.335Z,55.40
2017-07-18T19:14:05.426Z,56.00
2017-07-18T19:16:31.676Z,55.30
2017-07-18T19:18:57.868Z,55.10
2017-07-18T19:21:24.066Z,55.30
2017-07-18T19:23:51.001Z,57.50
2017-07-18T19:26:17.199Z,55.20
2017-07-18T19:28:43.387Z,56.00
2017-07-18T19:31:09.976Z,54.80
2017-07-18T19:33:36.594Z,55.70
2017-07-18T19:36:02.766Z,55.10
2017-07-18T19:38:28.982Z,56.10
2017-07-18T19:40:55.222Z,57.20
2017-07-18T19:43:21.452Z,56.60
2017-07-18T19:45:48.425Z,57.50
2017-07-18T19:48:14.689Z,57.00
2017-07-18T19:50:40.921Z,57.50
2017-07-18T19:53:07.113Z,57.90
2017-07-18T19:55:33.316Z,57.60
2017-07-18T19:57:59.518Z,58.00
2017-07-18T20:00:25.761Z,57.80
2017-07-18T20:02:51.976Z,58.00
2017-07-18T20:05:18.292Z,57.50
2017-07-18T20:07:44.505Z,58.40
2017-07-18T20:10:10.788Z,58.60
2017-07-18T20:12:38.883Z,59.20
2017-07-18T20:15:05.905Z,58.90
2017-07-18T20:17:32.364Z,58.20
2017-07-18T20:19:58.570Z,58.80
2017-07-18T20:22:24.914Z,58.80
2017-07-18T20:24:51.866Z,59.50
2017-07-18T20:27:18.892Z,58.80
2017-07-18T20:29:45.104Z,58.80
2017-07-18T20:32:11.359Z,58.80
2017-07-18T20:34:37.582Z,59.00
2017-07-18T20:37:04.572Z,60.40
2017-07-18T20:39:30.783Z,59.70
2017-07-18T20:41:57.009Z,59.50
2017-07-18T20:44:23.213Z,59.40
2017-07-18T20:46:49.396Z,59.90
2017-07-18T20:49:15.602Z,60.10
2017-07-18T20:51:41.980Z,59.70
2017-07-18T20:54:08.187Z,59.80
2017-07-18T20:56:34.388Z,60.90
2017-07-18T20:59:00.646Z,59.70
2017-07-18T21:01:26.824Z,59.80
2017-07-18T21:03:53.044Z,59.60
2017-07-18T21:06:19.227Z,59.60
2017-07-18T21:08:45.603Z,59.40
2017-07-18T21:11:11.866Z,59.30
2017-07-18T21:13:38.472Z,59.50
2017-07-18T21:16:05.151Z,60.00
2017-07-18T21:18:32.578Z,59.40
2017-07-18T21:21:00.613Z,59.90
2017-07-18T21:23:27.207Z,59.30
2017-07-18T21:25:54.572Z,59.50
2017-07-18T21:28:21.014Z,60.00
2017-07-18T21:30:47.220Z,61.30
2017-07-18T21:33:14.189Z,60.40
2017-07-18T21:35:40.375Z,60.40
2017-07-18T21:38:06.565Z,59.70
2017-07-18T21:40:32.778Z,59.60
2017-07-18T21:42:58.961Z,60.10
2017-07-18T21:45:25.604Z,59.80
2017-07-18T21:47:52.282Z,60.50
2017-07-18T21:50:18.595Z,60.00
2017-07-18T21:52:45.547Z,60.50
2017-07-18T21:55:12.883Z,60.80
2017-07-18T21:57:39.843Z,60.60
2017-07-18T22:00:06.063Z,60.20
2017-07-18T22:02:33.074Z,61.50
2017-07-18T22:05:00.211Z,61.80
2017-07-18T22:07:26.434Z,61.10
2017-07-18T22:09:52.621Z,60.60
2017-07-18T22:12:19.179Z,60.10
2017-07-18T22:14:45.493Z,60.80
2017-07-18T22:17:11.826Z,61.40
2017-07-18T22:19:38.180Z,61.60
2017-07-18T22:22:04.375Z,60.80
2017-07-18T22:24:31.382Z,62.90
2017-07-18T22:26:57.598Z,61.80
2017-07-18T22:29:24.203Z,61.60
2017-07-18T22:31:50.576Z,61.40
2017-07-18T22:34:16.805Z,61.40
2017-07-18T22:36:43.040Z,62.00
2017-07-18T22:39:09.274Z,62.30
2017-07-18T22:41:36.298Z,61.50
2017-07-18T22:44:02.495Z,63.10
2017-07-18T22:46:29.415Z,62.10
2017-07-18T22:48:55.592Z,62.80
2017-07-18T22:51:21.823Z,62.00
2017-07-18T22:53:47.987Z,62.70
2017-07-18T22:56:14.204Z,63.20
2017-07-18T22:58:40.831Z,62.00
2017-07-18T23:01:06.980Z,62.20
2017-07-18T23:03:34.220Z,62.70
2017-07-18T23:06:00.544Z,63.30
2017-07-18T23:08:26.806Z,62.00
2017-07-18T23:10:53.736Z,62.40
2017-07-18T23:13:19.965Z,62.10
2017-07-18T23:15:46.912Z,61.80
2017-07-18T23:18:13.118Z,62.70
2017-07-18T23:20:39.320Z,63.40
2017-07-18T23:23:05.491Z,62.70
2017-07-18T23:25:31.738Z,63.90
2017-07-18T23:27:57.923Z,63.10
2017-07-18T23:30:24.123Z,63.30
2017-07-18T23:32:50.342Z,63.60
2017-07-18T23:35:17.293Z,63.10
2017-07-18T23:37:44.181Z,63.40
2017-07-18T23:40:10.416Z,63.40
2017-07-18T23:42:36.584Z,63.50
2017-07-18T23:45:03.165Z,63.50
2017-07-18T23:47:29.388Z,64.00
2017-07-18T23:49:55.555Z,63.40
2017-07-18T23:52:21.739Z,64.00
2017-07-18T23:54:48.079Z,64.20
2017-07-18T23:57:14.261Z,63.90
2017-07-18T23:59:40.506Z,64.50
